Potrero (157, 448) Station Data

Red Flag Warning: No
Fire Weather Zone: 250
SDGE Region: Mountain Empire
Lat/Lon: 32.604/-116.607

Observations

Time Wind Speed/Gust Temp(F) RH Fuel Moist Fuel Temp(F) Dewpt(F) Tmax(F) Tmin(F) Accum Precip 10-min Precip SL Press(mb)
3/29 8:00am 76 11 G 17 64° 15% - - 15° 64.6° 50.7° - - -
3/29 7:50am 74 10 G 16 64° 15% - - 15° 64.3° 50.7° - - -
3/29 7:40am 71 11 G 20 63° 15% - - 15° 64° 50.7° - - -
3/29 7:30am 57 3 G 10 61° 18% - - 17° 62.4° 50.7° - - -
3/29 7:20am 100 6 G 13 61° 17% - - 16° 62.2° 50.7° - - -
3/29 7:10am 101 9 G 15 59° 19% - - 16° 62.2° 50.7° - - -
3/29 7:00am 53 4 G 7 58° 19% - - 16° 62.2° 50.7° - - -
3/29 6:50am 14 3 G 4 59° 18% - - 15° 62.2° 50.7° - - -
3/29 6:40am 95 5 G 11 59° 17% - - 14° 62.2° 50.7° - - -
3/29 6:30am 94 6 G 9 59° 17% - - 14° 62.2° 50.7° - - -
3/29 6:20am 93 3 G 5 59° 16% - - 13° 62.2° 50.7° - - -
3/29 6:10am 88 4 G 6 58° 17% - - 14° 62.2° 50.7° - - -
3/29 6:00am 93 4 G 7 60° 16% - - 13° 62.2° 50.7° - - -
3/29 5:50am 71 5 G 8 59° 17% - - 14° 62.2° 50.7° - - -
3/29 5:40am 63 5 G 7 56° 20% - - 16° 62.2° 50.7° - - -
3/29 5:30am 97 7 G 11 58° 18% - - 15° 62.2° 50.7° - - -
3/29 5:20am 105 8 G 11 59° 17% - - 14° 62.2° 50.7° - - -
3/29 5:10am 88 7 G 11 60° 16% - - 13° 62.2° 50.7° - - -
3/29 5:00am 70 6 G 9 60° 16% - - 13° 62.2° 50.7° - - -
3/29 4:50am 67 4 G 6 61° 14% - - 12° 62.2° 50.7° - - -
3/29 4:40am 58 4 G 7 61° 14% - - 12° 61.9° 50.7° - - -
3/29 4:30am 62 5 G 7 59° 16% - - 13° 61.5° 50.7° - - -
3/29 4:20am 44 6 G 8 60° 16% - - 13° 61.5° 50.7° - - -
3/29 4:10am 29 6 G 8 60° 16% - - 13° 61.5° 50.7° - - -
3/29 4:00am 50 5 G 7 59° 16% - - 13° 61.5° 50.7° - - -
3/29 3:50am 30 5 G 7 58° 19% - - 15° 61.5° 50.7° - - -
3/29 3:40am 37 5 G 10 59° 17% - - 15° 61.5° 50.7° - - -
3/29 3:30am 80 7 G 12 60° 16% - - 14° 61.5° 50.7° - - -
3/29 3:20am 79 8 G 14 60° 16% - - 13° 61.5° 50.7° - - -
3/29 3:10am 18 6 G 11 60° 16% - - 14° 61.5° 50.7° - - -
3/29 3:00am 44 4 G 8 61° 15% - - 13° 61.5° 50.7° - - -
3/29 2:50am 60 5 G 10 61° 16% - - 14° 61.5° 50.7° - - -
3/29 2:40am 53 6 G 12 61° 15% - - 13° 61.5° 50.7° - - -
3/29 2:30am 87 6 G 11 57° 20% - - 16° 60.6° 50.7° - - -
3/29 2:20am 76 8 G 13 60° 17% - - 16° 60.6° 50.7° - - -
3/29 2:10am 70 6 G 11 59° 19% - - 16° 60° 50.7° - - -
3/29 2:00am 68 6 G 10 59° 19% - - 16° 60° 50.7° - - -
3/29 1:50am 75 7 G 12 60° 18% - - 16° 60° 50.7° - - -
3/29 1:40am 81 8 G 10 58° 18% - - 16° 59.5° 50.7° - - -
3/29 1:30am 90 9 G 11 58° 18% - - 15° 58.8° 50.7° - - -
3/29 1:20am 95 6 G 9 57° 19% - - 15° 58.8° 50.7° - - -
3/29 1:10am 120 5 G 8 56° 23% - - 18° 58.8° 50.7° - - -
3/29 1:00am 90 7 G 9 57° 20% - - 16° 58.8° 50.7° - - -
3/29 12:50am 127 5 G 7 52° 32% - - 23° 58.8° 50.7° - - -
3/29 12:40am 142 6 G 7 53° 35% - - 25° 58.8° 50.7° - - -
3/29 12:30am 97 5 G 7 58° 21% - - 17° 58.8° 50.7° - - -
3/29 12:20am 91 4 G 7 55° 25% - - 20° 57.2° 50.7° - - -
3/29 12:10am 133 2 G 5 51° 46% - - 31° 52° 50.7° - - -
3/29 12:00am 151 3 G 5 51° 52% - - 34° 67.8° 43.2° - - -
3/28 11:50pm 149 2 G 4 51° 55% - - 35° 67.8° 43.2° - - -
3/28 11:40pm 147 4 G 6 51° 60% - - 37° 67.8° 43.2° - - -
3/28 11:30pm 148 4 G 6 51° 61% - - 38° 67.8° 43.2° - - -
3/28 11:20pm 129 3 G 4 51° 67% - - 40° 67.8° 43.2° - - -
3/28 11:10pm 136 4 G 6 51° 67% - - 40° 67.8° 43.2° - - -
3/28 11:00pm 123 3 G 5 52° 64% - - 40° 67.8° 43.2° - - -
3/28 10:50pm 71 2 G 3 52° 66% - - 41° 67.8° 43.2° - - -
3/28 10:40pm 137 3 G 4 52° 65% - - 41° 67.8° 43.2° - - -
3/28 10:30pm 128 4 G 5 52° 65% - - 41° 67.8° 43.2° - - -
3/28 10:20pm 135 4 G 6 53° 64% - - 41° 67.8° 43.2° - - -
3/28 10:10pm 94 4 G 7 53° 65% - - 41° 67.8° 43.2° - - -
3/28 10:00pm 125 5 G 7 52° 66% - - 41° 67.8° 43.2° - - -
3/28 9:50pm 110 4 G 7 52° 66% - - 41° 67.8° 43.2° - - -
3/28 9:40pm 126 3 G 4 53° 65% - - 41° 67.8° 43.2° - - -
3/28 9:30pm 64 3 G 5 54° 62% - - 42° 67.8° 43.2° - - -
3/28 9:20pm 67 1 G 3 54° 65% - - 42° 67.8° 43.2° - - -
3/28 9:10pm 10 3 G 5 54° 66% - - 43° 67.8° 43.2° - - -
3/28 9:00pm 29 3 G 5 52° 68% - - 42° 67.8° 43.2° - - -
3/28 8:50pm 287 4 G 6 53° 66% - - 42° 67.8° 43.2° - - -
3/28 8:40pm 321 5 G 7 54° 65% - - 43° 67.8° 43.2° - - -
3/28 8:30pm 328 4 G 5 54° 65% - - 43° 67.8° 43.2° - - -
3/28 8:20pm 329 3 G 5 54° 66% - - 42° 67.8° 43.2° - - -
3/28 8:10pm 304 4 G 7 54° 65% - - 42° 67.8° 43.2° - - -
3/28 8:00pm 311 5 G 7 55° 64% - - 42° 67.8° 43.2° - - -
3/28 7:50pm 307 5 G 7 54° 64% - - 43° 67.8° 43.2° - - -
3/28 7:40pm 302 6 G 7 55° 64% - - 43° 67.8° 43.2° - - -
3/28 7:30pm 306 6 G 7 55° 63% - - 43° 67.8° 43.2° - - -
3/28 7:20pm 293 5 G 8 56° 62% - - 43° 67.8° 43.2° - - -
3/28 7:10pm 303 5 G 7 57° 61% - - 43° 67.8° 43.2° - - -
3/28 7:00pm 301 5 G 7 57° 59% - - 43° 67.8° 43.2° - - -
3/28 6:50pm 290 6 G 8 58° 57% - - 43° 67.8° 43.2° - - -
3/28 6:40pm 299 6 G 9 59° 54% - - 43° 67.8° 43.2° - - -
3/28 6:30pm 285 8 G 11 60° 53% - - 43° 67.8° 43.2° - - -
3/28 6:20pm 284 8 G 12 61° 51% - - 43° 67.8° 43.2° - - -
3/28 6:10pm 290 10 G 13 61° 51% - - 43° 67.8° 43.2° - - -
3/28 6:00pm 281 10 G 13 61° 49% - - 42° 67.8° 43.2° - - -
3/28 5:50pm 278 10 G 16 62° 49% - - 42° 67.8° 43.2° - - -
3/28 5:40pm 297 10 G 14 63° 47% - - 42° 67.8° 43.2° - - -
3/28 5:30pm 286 11 G 15 63° 46% - - 42° 67.8° 43.2° - - -
3/28 5:20pm 280 10 G 14 63° 44% - - 41° 67.8° 43.2° - - -
3/28 5:10pm 289 10 G 15 64° 41% - - 40° 67.8° 43.2° - - -
3/28 5:00pm 282 8 G 14 64° 38% - - 38° 67.8° 43.2° - - -
3/28 4:50pm 274 9 G 14 65° 36% - - 37° 67.8° 43.2° - - -
3/28 4:40pm 267 8 G 13 66° 33% - - 36° 67.8° 43.2° - - -
3/28 4:30pm 254 7 G 14 65° 32% - - 35° 67.8° 43.2° - - -
3/28 4:20pm 257 9 G 14 66° 30% - - 33° 67.8° 43.2° - - -
3/28 4:10pm 267 7 G 12 66° 29% - - 33° 67.8° 43.2° - - -
3/28 4:00pm 256 6 G 13 66° 29% - - 33° 67.8° 43.2° - - -
3/28 3:50pm 264 7 G 13 66° 29% - - 33° 67.8° 43.2° - - -
3/28 3:40pm 274 8 G 14 66° 30% - - 33° 67.8° 43.2° - - -
3/28 3:30pm 248 6 G 12 67° 29% - - 33° 67.8° 43.2° - - -
3/28 3:20pm 247 7 G 12 66° 29% - - 34° 67.8° 43.2° - - -
3/28 3:10pm 256 6 G 13 67° 29% - - 33° 67.8° 43.2° - - -
3/28 3:00pm 264 8 G 15 66° 29% - - 33° 67.8° 43.2° - - -
3/28 2:50pm 229 5 G 11 67° 28% - - 32° 67.8° 43.2° - - -
3/28 2:40pm 249 6 G 12 67° 28% - - 33° 67.8° 43.2° - - -
3/28 2:30pm 262 5 G 10 67° 27% - - 31° 67.6° 43.2° - - -
3/28 2:20pm 257 4 G 9 66° 25% - - 29° 66.8° 43.2° - - -
3/28 2:10pm 287 7 G 11 66° 26% - - 30° 66.2° 43.2° - - -
3/28 2:00pm 272 7 G 13 65° 25% - - 28° 65.8° 43.2° - - -
3/28 1:50pm 291 8 G 16 64° 24% - - 27° 65.8° 43.2° - - -
3/28 1:40pm 274 7 G 13 65° 24% - - 28° 65.8° 43.2° - - -
3/28 1:30pm 286 8 G 13 64° 26% - - 29° 65.8° 43.2° - - -
3/28 1:20pm 286 8 G 14 65° 26% - - 29° 65.8° 43.2° - - -
3/28 1:10pm 265 7 G 13 64° 25% - - 28° 65.2° 43.2° - - -
3/28 1:00pm 289 6 G 11 64° 24% - - 27° 64.5° 43.2° - - -
3/28 12:50pm 286 7 G 13 63° 25% - - 27° 64.1° 43.2° - - -
3/28 12:40pm 272 8 G 14 63° 27% - - 29° 64.1° 43.2° - - -
3/28 12:30pm 287 8 G 13 63° 27% - - 28° 64.1° 43.2° - - -
3/28 12:20pm 279 6 G 12 63° 26% - - 27° 64° 43.2° - - -
3/28 12:10pm 266 6 G 12 63° 27% - - 28° 63.5° 43.2° - - -
3/28 12:00pm 248 6 G 11 63° 28% - - 29° 63.5° 43.2° - - -
3/28 11:50am 269 6 G 10 63° 27% - - 28° 63.5° 43.2° - - -
3/28 11:40am 268 6 G 10 63° 27% - - 28° 63.5° 43.2° - - -
3/28 11:30am 287 7 G 13 62° 27% - - 27° 63.5° 43.2° - - -
3/28 11:20am 278 7 G 13 62° 27% - - 28° 63.5° 43.2° - - -
3/28 11:10am 253 6 G 12 62° 25% - - 26° 63.5° 43.2° - - -
3/28 11:00am 261 6 G 10 62° 24% - - 25° 63.5° 43.2° - - -
3/28 10:50am 246 5 G 11 63° 24% - - 25° 63.5° 43.2° - - -
3/28 10:40am 251 3 G 7 62° 26% - - 27° 63.5° 43.2° - - -
3/28 10:30am 266 5 G 10 61° 27% - - 27° 62.5° 43.2° - - -
3/28 10:20am 257 4 G 8 62° 25% - - 26° 62.5° 43.2° - - -
3/28 10:10am 267 3 G 7 61° 27% - - 27° 62.3° 43.2° - - -
3/28 10:00am 152 4 G 9 61° 23% - - 23° 62.1° 43.2° - - -
3/28 9:50am 122 8 G 13 60° 24% - - 23° 60.6° 43.2° - - -
3/28 9:40am 119 8 G 11 59° 26% - - 24° 59.7° 43.2° - - -
3/28 9:30am 110 9 G 17 59° 27% - - 25° 59.7° 43.2° - - -
3/28 9:20am 111 9 G 15 59° 27% - - 25° 59° 43.2° - - -
3/28 9:10am 146 3 G 9 57° 31% - - 27° 58.3° 43.2° - - -
3/28 9:00am 115 4 G 11 57° 31% - - 27° 58.3° 43.2° - - -
3/28 8:50am 331 1 G 3 56° 36% - - 29° 56.8° 43.2° - - -
3/28 8:40am 170 2 G 6 54° 38% - - 29° 55.2° 43.2° - - -
3/28 8:30am 298 3 G 4 53° 37% - - 27° 55.2° 43.2° - - -
3/28 8:20am 308 3 G 6 53° 35% - - 26° 55.2° 43.2° - - -
3/28 8:10am 346 3 G 5 54° 30% - - 24° 55.2° 43.2° - - -
3/28 8:00am 34 2 G 4 51° 39% - - 27° 53° 43.2° - - -
3/28 7:50am 133 4 G 6 48° 45% - - 28° 52° 43.2° - - -
3/28 7:40am 145 3 G 7 48° 43% - - 27° 52° 43.2° - - -
3/28 7:30am 140 5 G 8 46° 51% - - 29° 52° 43.2° - - -
3/28 7:20am 27 7 G 9 51° 31% - - 22° 52° 43.2° - - -
3/28 7:10am 31 7 G 9 50° 35% - - 23° 51.4° 43.2° - - -
3/28 7:00am 6 5 G 7 48° 44% - - 27° 51.4° 43.2° - - -
3/28 6:50am 271 5 G 8 46° 52% - - 29° 51.4° 43.2° - - -
3/28 6:40am 151 5 G 8 45° 54% - - 29° 51.4° 43.2° - - -
3/28 6:30am 345 4 G 6 48° 44% - - 27° 51.4° 43.2° - - -
3/28 6:20am 315 5 G 7 48° 49% - - 30° 51.4° 43.2° - - -
3/28 6:10am 329 5 G 7 50° 41% - - 27° 51.4° 43.2° - - -
3/28 6:00am 15 4 G 5 51° 38% - - 26° 51.4° 43.2° - - -